Time;durP1;ratioP1;P1;durP2;ratioP2;P2;SDS_P1;SDS_P2;PMS_P1;PMS_P2;Temp;Humidity;BMP_temperature;BMP_pressure;BME280_temperature;BME280_humidity;BME280_pressure;Samples;Min_cycle;Max_cycle;Signal;HPM_P1;HPM_P2
2023/05/16 00:00:54;;;;;;;10.80;1.42;;;;;;;10.10;100.00;101520.47;4951754;28;20385;-76
2023/05/16 00:03:20;;;;;;;15.60;2.05;;;;;;;10.13;100.00;101514.81;4967374;28;20463;-76
2023/05/16 00:05:45;;;;;;;21.13;1.80;;;;;;;10.06;100.00;101519.81;4962493;28;20047;-76
2023/05/16 00:08:11;;;;;;;9.68;2.17;;;;;;;10.02;100.00;101515.53;4959419;28;20034;-76
2023/05/16 00:10:37;;;;;;;14.32;1.80;;;;;;;10.06;100.00;101524.41;4974369;28;20126;-76
2023/05/16 00:13:03;;;;;;;13.77;2.25;;;;;;;10.07;100.00;101523.44;4948897;28;20090;-77
2023/05/16 00:15:28;;;;;;;7.72;1.60;;;;;;;10.08;100.00;101516.97;4944358;28;20117;-76
2023/05/16 00:17:58;;;;;;;12.10;1.75;;;;;;;10.05;100.00;101518.06;4974965;28;20501;-76
2023/05/16 00:20:27;;;;;;;14.23;1.83;;;;;;;10.03;100.00;101517.28;4960638;28;20053;-76
2023/05/16 00:22:53;;;;;;;9.82;1.95;;;;;;;9.96;100.00;101518.66;4932640;28;20061;-76
2023/05/16 00:25:19;;;;;;;11.90;1.92;;;;;;;9.85;100.00;101521.22;4974949;28;20524;-76
2023/05/16 00:27:45;;;;;;;18.48;2.05;;;;;;;9.91;100.00;101520.84;4967290;28;20031;-76
2023/05/16 00:30:11;;;;;;;17.85;2.20;;;;;;;9.91;100.00;101520.84;4971845;28;20081;-77
2023/05/16 00:32:36;;;;;;;12.88;1.80;;;;;;;9.72;100.00;101515.69;4960400;28;20404;-77
2023/05/16 00:35:02;;;;;;;9.43;1.60;;;;;;;9.71;100.00;101524.88;4956558;28;20039;-76
2023/05/16 00:37:28;;;;;;;17.50;1.98;;;;;;;9.71;100.00;101516.66;4973783;28;20070;-77
2023/05/16 00:39:53;;;;;;;13.82;2.03;;;;;;;9.68;100.00;101517.75;4966491;28;20382;-76
2023/05/16 00:42:20;;;;;;;8.23;2.08;;;;;;;9.70;100.00;101521.25;4964831;28;20482;-76
2023/05/16 00:44:46;;;;;;;17.40;2.33;;;;;;;9.69;100.00;101513.13;4973466;28;20030;-77
2023/05/16 00:47:11;;;;;;;19.70;2.20;;;;;;;9.59;100.00;101525.66;4941528;28;20458;-75
2023/05/16 00:49:37;;;;;;;17.92;1.88;;;;;;;9.63;100.00;101516.28;4936597;28;20035;-75
2023/05/16 00:52:03;;;;;;;17.58;2.00;;;;;;;9.69;100.00;101516.78;4947039;28;20386;-75
2023/05/16 00:54:29;;;;;;;13.05;2.28;;;;;;;9.64;100.00;101524.41;4934579;28;20057;-75
2023/05/16 00:56:55;;;;;;;15.00;1.80;;;;;;;9.66;100.00;101505.16;4985659;28;20478;-76
2023/05/16 00:59:21;;;;;;;17.58;2.00;;;;;;;9.71;100.00;101523.00;4954332;28;20470;-76
2023/05/16 01:01:47;;;;;;;18.35;2.28;;;;;;;9.81;100.00;101514.22;4972958;28;20063;-77
2023/05/16 01:04:13;;;;;;;19.23;2.35;;;;;;;9.81;100.00;101527.91;4991858;28;20527;-76
2023/05/16 01:06:39;;;;;;;21.27;2.40;;;;;;;9.70;100.00;101520.38;4965316;28;20100;-76
2023/05/16 01:09:06;;;;;;;14.45;1.80;;;;;;;9.64;100.00;101521.66;4940764;28;20031;-76
2023/05/16 01:11:45;;;;;;;14.65;2.58;;;;;;;9.67;100.00;101526.91;4946382;28;20035;-76
2023/05/16 01:14:21;;;;;;;19.27;2.40;;;;;;;9.69;100.00;101535.00;4959187;28;20434;-75
2023/05/16 01:17:02;;;;;;;13.43;2.03;;;;;;;9.71;100.00;101519.41;4966048;28;20117;-75
2023/05/16 01:19:55;;;;;;;15.82;2.45;;;;;;;9.75;100.00;101535.50;4961719;28;20466;-75
2023/05/16 01:22:50;;;;;;;9.65;2.20;;;;;;;9.62;100.00;101534.53;4959750;28;20583;-75
2023/05/16 01:25:40;;;;;;;14.68;2.17;;;;;;;9.62;100.00;101534.53;4951992;28;20048;-75
2023/05/16 01:28:06;;;;;;;16.73;2.10;;;;;;;9.53;100.00;101530.53;4977762;28;20026;-76
2023/05/16 01:30:40;;;;;;;20.65;2.58;;;;;;;9.54;100.00;101529.56;4974695;28;20449;-77
2023/05/16 01:33:06;;;;;;;15.57;2.20;;;;;;;9.55;100.00;101524.97;4976781;28;20055;-74
2023/05/16 01:35:32;;;;;;;21.80;2.45;;;;;;;9.51;100.00;101524.31;4948927;28;20042;-75
2023/05/16 01:38:10;;;;;;;22.33;2.58;;;;;;;9.36;100.00;101528.00;4972587;28;20121;-75
2023/05/16 01:40:44;;;;;;;13.52;2.50;;;;;;;9.27;100.00;101520.41;4968105;28;20061;-75
2023/05/16 01:43:13;;;;;;;13.18;2.15;;;;;;;9.26;100.00;101524.97;4978145;28;20027;-75
2023/05/16 01:45:44;;;;;;;15.93;2.35;;;;;;;9.20;100.00;101526.25;4963868;28;20093;-77
2023/05/16 01:48:16;;;;;;;15.93;2.45;;;;;;;9.29;100.00;101540.28;4971670;28;20077;-75
2023/05/16 01:50:47;;;;;;;12.55;1.98;;;;;;;9.16;100.00;101529.25;4959220;28;20061;-78
2023/05/16 01:53:16;;;;;;;10.02;1.67;;;;;;;9.15;100.00;101531.13;4968593;28;20046;-76
2023/05/16 01:55:56;;;;;;;16.63;2.90;;;;;;;9.10;100.00;101541.44;4962651;28;20027;-76
2023/05/16 01:58:25;;;;;;;14.35;3.45;;;;;;;9.08;100.00;101537.03;4974819;28;20030;-75
2023/05/16 02:00:59;;;;;;;13.23;2.03;;;;;;;8.97;100.00;101541.31;4969648;28;20030;-76
2023/05/16 02:03:24;;;;;;;20.10;3.08;;;;;;;8.96;100.00;101555.94;4939912;28;20117;-76
2023/05/16 02:05:50;;;;;;;12.15;2.20;;;;;;;8.95;100.00;101554.22;4981902;28;20077;-75
2023/05/16 02:08:15;;;;;;;11.45;2.17;;;;;;;8.93;100.00;101547.06;4944702;28;20121;-75
2023/05/16 02:10:41;;;;;;;16.05;2.13;;;;;;;8.79;100.00;101537.88;4943611;28;20030;-75
2023/05/16 02:13:06;;;;;;;19.90;1.90;;;;;;;8.84;100.00;101562.16;4986651;28;20093;-75
2023/05/16 02:15:32;;;;;;;21.38;3.10;;;;;;;8.93;100.00;101558.84;4967512;28;20092;-76
2023/05/16 02:17:57;;;;;;;14.30;1.80;;;;;;;8.80;100.00;101566.91;4977985;28;20038;-76
2023/05/16 02:20:23;;;;;;;15.88;2.15;;;;;;;8.74;100.00;101567.31;4951116;28;20093;-75
2023/05/16 02:22:48;;;;;;;14.90;2.30;;;;;;;8.67;100.00;101551.38;4944388;28;20042;-75
2023/05/16 02:25:15;;;;;;;26.17;2.75;;;;;;;8.81;100.00;101570.53;4947114;28;20054;-76
2023/05/16 02:27:41;;;;;;;19.55;2.55;;;;;;;8.63;100.00;101567.94;4959671;28;20022;-77
2023/05/16 02:30:08;;;;;;;20.95;3.80;;;;;;;8.68;100.00;101566.78;4946476;28;20039;-76
2023/05/16 02:32:34;;;;;;;24.83;2.35;;;;;;;8.60;100.00;101567.25;4945807;28;20030;-76
2023/05/16 02:34:59;;;;;;;24.52;2.33;;;;;;;8.63;100.00;101569.78;4942232;28;20482;-77
2023/05/16 02:37:25;;;;;;;16.60;2.00;;;;;;;8.53;100.00;101571.31;4924379;28;20081;-76
2023/05/16 02:39:50;;;;;;;15.38;1.90;;;;;;;8.53;100.00;101569.47;4941688;28;20490;-75
2023/05/16 02:42:15;;;;;;;21.83;1.67;;;;;;;8.46;100.00;101573.50;4950703;28;20110;-75
2023/05/16 02:44:41;;;;;;;17.30;2.03;;;;;;;8.45;100.00;101578.09;4942097;28;20031;-76
2023/05/16 02:47:07;;;;;;;24.85;2.53;;;;;;;8.44;100.00;101589.09;4956039;28;20075;-75
2023/05/16 02:49:32;;;;;;;21.50;2.05;;;;;;;8.41;100.00;101592.88;4944786;28;20038;-75
2023/05/16 02:51:58;;;;;;;16.85;1.80;;;;;;;8.34;100.00;101596.91;4960864;28;20490;-76
2023/05/16 02:54:23;;;;;;;12.38;2.30;;;;;;;8.36;100.00;101610.44;4942457;28;20035;-76
2023/05/16 02:56:49;;;;;;;19.40;1.50;;;;;;;8.29;100.00;101602.63;4941282;28;20371;-76
2023/05/16 02:59:14;;;;;;;18.70;3.60;;;;;;;8.33;100.00;101611.53;4944798;28;20363;-76
2023/05/16 03:01:40;;;;;;;14.88;1.77;;;;;;;8.15;100.00;101602.56;4939710;28;20061;-76
2023/05/16 03:04:05;;;;;;;31.63;1.88;;;;;;;8.31;100.00;101616.16;4947241;28;20027;-78
2023/05/16 03:06:31;;;;;;;25.60;1.80;;;;;;;8.25;100.00;101611.97;4953608;28;20089;-77
2023/05/16 03:08:56;;;;;;;21.60;2.83;;;;;;;8.19;100.00;101614.16;4980895;28;20027;-76
2023/05/16 03:11:23;;;;;;;22.98;3.13;;;;;;;8.19;100.00;101611.44;4934013;28;20113;-76
2023/05/16 03:13:49;;;;;;;27.50;2.50;;;;;;;8.13;100.00;101609.91;4959298;28;20121;-76
2023/05/16 03:16:15;;;;;;;20.30;1.92;;;;;;;7.98;100.00;101606.22;4944101;28;20066;-77
2023/05/16 03:18:41;;;;;;;18.92;2.22;;;;;;;8.05;100.00;101610.38;4941638;28;20039;-77
2023/05/16 03:21:06;;;;;;;14.85;2.20;;;;;;;8.03;100.00;101615.00;4972293;28;20043;-77
2023/05/16 03:23:32;;;;;;;18.02;1.92;;;;;;;8.01;100.00;101613.34;4944240;28;20101;-76
2023/05/16 03:25:58;;;;;;;21.55;1.92;;;;;;;7.94;100.00;101625.59;4959693;28;20371;-77
2023/05/16 03:28:25;;;;;;;20.25;1.90;;;;;;;7.93;100.00;101618.34;4940861;28;20038;-76
2023/05/16 03:30:51;;;;;;;16.45;2.13;;;;;;;8.02;100.00;101637.81;4954942;28;20121;-76
2023/05/16 03:33:17;;;;;;;25.42;2.22;;;;;;;8.12;100.00;101630.00;4973317;28;20378;-76
2023/05/16 03:35:43;;;;;;;13.13;2.28;;;;;;;8.03;100.00;101620.47;4918081;29;20448;-76
2023/05/16 03:38:08;;;;;;;24.35;1.92;;;;;;;8.15;100.00;101629.81;4979950;28;20106;-76
2023/05/16 03:40:34;;;;;;;13.32;1.55;;;;;;;8.14;100.00;101628.06;4968305;28;20061;-77
2023/05/16 03:43:03;;;;;;;15.82;1.58;;;;;;;8.26;100.00;101638.28;4978758;28;20108;-77
2023/05/16 03:45:30;;;;;;;22.50;2.40;;;;;;;8.22;100.00;101644.88;4924063;28;20054;-76
2023/05/16 03:47:55;;;;;;;10.20;1.63;;;;;;;8.06;100.00;101638.50;4955452;28;20552;-76
2023/05/16 03:50:21;;;;;;;17.48;1.70;;;;;;;8.21;100.00;101640.38;4940978;28;20035;-75
2023/05/16 03:52:47;;;;;;;18.15;2.00;;;;;;;8.11;100.00;101644.59;4972474;28;20043;-77
2023/05/16 03:55:13;;;;;;;18.90;2.17;;;;;;;8.11;100.00;101641.84;4961575;28;20046;-76
2023/05/16 03:57:41;;;;;;;18.05;1.52;;;;;;;8.03;100.00;101631.38;4958173;28;20393;-77
2023/05/16 04:00:07;;;;;;;22.35;2.85;;;;;;;8.31;100.00;101645.31;4977489;28;20031;-77
2023/05/16 04:02:33;;;;;;;14.98;3.03;;;;;;;8.10;100.00;101621.03;4962250;28;20070;-76
2023/05/16 04:04:58;;;;;;;22.30;1.70;;;;;;;8.19;100.00;101639.59;4970316;28;20133;-79
2023/05/16 04:07:24;;;;;;;19.23;1.85;;;;;;;8.17;100.00;101652.44;4977884;28;20042;-77
2023/05/16 04:09:50;;;;;;;14.45;1.85;;;;;;;8.13;100.00;101649.97;4958351;28;20031;-76
2023/05/16 04:12:16;;;;;;;16.70;2.60;;;;;;;8.10;100.00;101653.75;4961136;28;20038;-77
2023/05/16 04:14:41;;;;;;;14.68;1.80;;;;;;;8.09;100.00;101662.91;4973880;28;20030;-76
2023/05/16 04:17:07;;;;;;;13.40;1.70;;;;;;;8.00;100.00;101656.13;4978652;28;20109;-77
2023/05/16 04:19:32;;;;;;;13.48;2.13;;;;;;;8.09;100.00;101657.44;4918554;28;20406;-76
2023/05/16 04:21:58;;;;;;;11.38;1.90;;;;;;;8.10;100.00;101668.25;4936552;28;20123;-76
2023/05/16 04:24:25;;;;;;;27.35;2.72;;;;;;;8.03;100.00;101672.28;4943741;28;20536;-76
2023/05/16 04:26:51;;;;;;;15.48;2.00;;;;;;;7.97;100.00;101666.28;4940181;28;20026;-77
2023/05/16 04:29:17;;;;;;;24.48;2.08;;;;;;;8.09;100.00;101673.81;4954021;28;20086;-77
2023/05/16 04:31:42;;;;;;;13.02;1.52;;;;;;;8.08;100.00;101677.47;4964200;28;20046;-76
2023/05/16 04:34:08;;;;;;;21.55;1.73;;;;;;;8.18;100.00;101677.84;4936493;28;20050;-77
2023/05/16 04:36:34;;;;;;;19.58;2.38;;;;;;;8.21;100.00;101685.88;4928873;28;20045;-75
2023/05/16 04:39:03;;;;;;;15.57;2.38;;;;;;;8.20;100.00;101676.81;4963228;28;20046;-76
2023/05/16 04:41:28;;;;;;;18.42;2.00;;;;;;;8.04;100.00;101663.16;4986416;28;20057;-76
2023/05/16 04:43:54;;;;;;;20.33;2.53;;;;;;;8.18;100.00;101691.50;4989852;28;20046;-76
2023/05/16 04:46:19;;;;;;;13.93;2.20;;;;;;;8.23;100.00;101687.56;4974176;28;20026;-76
2023/05/16 04:48:45;;;;;;;18.15;1.58;;;;;;;8.32;100.00;101685.28;4965487;28;20096;-76
2023/05/16 04:51:11;;;;;;;16.23;2.17;;;;;;;8.36;100.00;101701.41;4977003;28;20114;-77
2023/05/16 04:53:54;;;;;;;18.17;1.80;;;;;;;8.36;100.00;101695.94;4955633;28;20045;-77
2023/05/16 04:56:21;;;;;;;20.55;2.30;;;;;;;8.32;100.00;101679.81;4952687;28;20062;-76
2023/05/16 04:58:47;;;;;;;20.92;1.95;;;;;;;8.36;100.00;101708.69;4971056;28;20065;-76
2023/05/16 05:01:12;;;;;;;11.43;2.42;;;;;;;8.20;100.00;101709.56;4956338;28;20110;-76
2023/05/16 05:03:37;;;;;;;13.68;2.00;;;;;;;8.28;100.00;101707.28;4976038;28;20512;-76
2023/05/16 05:06:03;;;;;;;20.20;2.25;;;;;;;8.25;100.00;101709.31;4945874;28;20057;-75
2023/05/16 05:08:29;;;;;;;14.00;2.42;;;;;;;8.36;100.00;101720.50;4953352;28;20382;-76
2023/05/16 05:10:55;;;;;;;15.05;2.55;;;;;;;8.28;100.00;101715.47;4951017;28;20046;-76
2023/05/16 05:13:21;;;;;;;15.18;2.15;;;;;;;8.22;100.00;101717.66;4988653;28;20033;-75
2023/05/16 05:15:46;;;;;;;16.55;2.10;;;;;;;8.34;100.00;101716.09;4956099;28;20042;-77
2023/05/16 05:18:12;;;;;;;20.90;2.20;;;;;;;8.19;100.00;101694.13;4936918;29;20390;-76
2023/05/16 05:20:37;;;;;;;18.25;2.75;;;;;;;8.31;100.00;101727.16;4967544;28;20050;-76
2023/05/16 05:23:03;;;;;;;13.43;1.90;;;;;;;8.45;100.00;101719.13;4954042;28;20234;-76
2023/05/16 05:25:28;;;;;;;18.88;2.63;;;;;;;8.55;100.00;101722.22;4984265;28;20047;-76
2023/05/16 05:27:54;;;;;;;8.88;1.88;;;;;;;8.74;100.00;101727.50;4980942;28;20426;-76
2023/05/16 05:30:19;;;;;;;25.30;3.13;;;;;;;8.96;100.00;101724.41;4937489;28;20058;-76
2023/05/16 05:32:45;;;;;;;23.05;3.22;;;;;;;9.09;100.00;101719.97;4957561;28;20053;-76
2023/05/16 05:35:10;;;;;;;11.57;1.67;;;;;;;9.29;100.00;101731.59;4970728;28;20034;-76
2023/05/16 05:37:36;;;;;;;18.20;2.30;;;;;;;9.36;100.00;101725.66;4962842;28;20050;-76
2023/05/16 05:40:02;;;;;;;18.13;3.38;;;;;;;9.41;100.00;101722.63;4968683;28;20117;-76
2023/05/16 05:42:27;;;;;;;11.55;1.98;;;;;;;9.66;100.00;101730.25;4925068;29;20117;-76
2023/05/16 05:44:52;;;;;;;16.23;2.38;;;;;;;10.17;100.00;101732.56;4976749;28;20548;-76
2023/05/16 05:47:18;;;;;;;7.60;1.45;;;;;;;10.29;100.00;101739.09;4936112;29;20028;-76
2023/05/16 05:49:43;;;;;;;9.60;1.98;;;;;;;10.28;100.00;101732.75;4958932;28;20066;-77
2023/05/16 05:52:09;;;;;;;13.38;1.70;;;;;;;10.22;100.00;101743.22;4984153;28;20035;-76
2023/05/16 05:54:35;;;;;;;14.13;1.67;;;;;;;10.32;100.00;101740.78;4965553;28;20047;-76
2023/05/16 05:57:03;;;;;;;15.25;2.42;;;;;;;10.62;100.00;101743.41;4942433;28;20058;-76
2023/05/16 05:59:29;;;;;;;17.63;2.05;;;;;;;11.03;100.00;101737.06;4978436;28;20446;-76
2023/05/16 06:01:54;;;;;;;20.02;1.92;;;;;;;11.09;100.00;101739.41;4937364;28;20066;-77
2023/05/16 06:04:20;;;;;;;15.65;1.88;;;;;;;10.87;100.00;101741.81;4940971;29;20111;-76
2023/05/16 06:06:46;;;;;;;12.75;1.52;;;;;;;11.31;100.00;101749.78;4969334;28;20034;-76
2023/05/16 06:09:15;;;;;;;15.65;1.60;;;;;;;11.76;100.00;101746.72;4984447;28;20038;-76
2023/05/16 06:11:42;;;;;;;13.18;1.65;;;;;;;11.45;100.00;101751.59;4944957;28;20387;-76
2023/05/16 06:14:07;;;;;;;17.60;1.92;;;;;;;12.05;100.00;101768.53;4934115;28;20335;-75
2023/05/16 06:16:33;;;;;;;14.23;1.88;;;;;;;11.70;100.00;101753.50;4960180;28;20045;-76
2023/05/16 06:18:59;;;;;;;14.23;1.67;;;;;;;12.03;100.00;101768.63;4932669;28;20130;-75
2023/05/16 06:21:24;;;;;;;6.65;1.33;;;;;;;12.08;100.00;101763.69;4954858;28;20109;-76
2023/05/16 06:23:50;;;;;;;16.65;2.80;;;;;;;12.50;100.00;101761.59;4941277;28;20070;-76
2023/05/16 06:26:15;;;;;;;16.85;1.23;;;;;;;12.90;100.00;101768.75;4959086;28;20035;-75
2023/05/16 06:28:41;;;;;;;15.20;1.40;;;;;;;12.55;100.00;101774.13;4953880;28;20031;-75
2023/05/16 06:31:06;;;;;;;18.30;1.60;;;;;;;13.12;100.00;101768.06;4953301;28;20039;-75
2023/05/16 06:33:32;;;;;;;4.50;1.00;;;;;;;13.04;100.00;101781.50;4924276;28;20035;-76
2023/05/16 06:35:58;;;;;;;14.68;1.63;;;;;;;13.68;97.45;101773.00;4966590;28;20042;-75
2023/05/16 06:38:24;;;;;;;15.63;1.73;;;;;;;13.37;99.29;101769.84;4922335;28;20061;-77
2023/05/16 06:40:49;;;;;;;17.83;1.52;;;;;;;13.37;100.00;101772.59;4936909;28;20050;-78
2023/05/16 06:43:16;;;;;;;10.95;1.27;;;;;;;13.29;100.00;101772.25;4934041;28;20038;-76
2023/05/16 06:45:43;;;;;;;17.95;1.98;;;;;;;12.84;100.00;101774.75;4961919;28;20141;-76
2023/05/16 06:48:08;;;;;;;11.38;1.60;;;;;;;13.20;100.00;101770.25;4965598;28;20393;-76
2023/05/16 06:50:34;;;;;;;11.13;1.20;;;;;;;13.83;95.79;101759.03;4962539;28;20035;-77
2023/05/16 06:53:03;;;;;;;12.52;1.48;;;;;;;13.63;93.02;101779.84;4959946;28;20054;-76
2023/05/16 06:55:29;;;;;;;10.13;1.20;;;;;;;12.80;98.76;101776.81;4952005;28;20462;-78
2023/05/16 06:57:55;;;;;;;11.55;1.20;;;;;;;13.00;96.48;101782.72;4954419;28;20067;-76
2023/05/16 07:00:20;;;;;;;11.70;0.85;;;;;;;13.03;97.63;101779.72;4962256;28;20374;-79
2023/05/16 07:02:46;;;;;;;7.88;0.95;;;;;;;12.47;98.51;101781.03;4944624;28;20066;-78
2023/05/16 07:05:11;;;;;;;9.65;0.93;;;;;;;12.11;100.00;101781.81;4947985;28;20098;-77
2023/05/16 07:07:37;;;;;;;4.38;1.10;;;;;;;13.01;95.10;101782.59;4940924;28;20126;-77
2023/05/16 07:10:03;;;;;;;6.95;1.27;;;;;;;13.49;90.41;101780.91;4948332;28;20039;-78
2023/05/16 07:12:28;;;;;;;11.68;0.90;;;;;;;13.38;89.79;101784.47;4938160;28;20043;-75
2023/05/16 07:14:53;;;;;;;6.10;1.00;;;;;;;13.77;86.61;101780.53;4941783;28;20414;-76
2023/05/16 07:17:19;;;;;;;7.88;1.45;;;;;;;13.99;88.55;101789.88;4909645;28;20032;-77
2023/05/16 07:19:44;;;;;;;13.27;1.45;;;;;;;14.10;87.46;101789.00;4956900;28;20039;-79
2023/05/16 07:22:12;;;;;;;7.43;1.10;;;;;;;13.92;89.49;101783.97;4941421;28;20042;-79
2023/05/16 07:24:38;;;;;;;7.50;0.90;;;;;;;13.50;89.59;101786.28;4941054;28;20196;-79
2023/05/16 07:27:03;;;;;;;8.40;1.00;;;;;;;14.24;86.03;101791.53;4959577;28;20129;-79
2023/05/16 07:29:29;;;;;;;11.82;1.13;;;;;;;13.09;90.29;101795.78;4964843;28;20758;-78
2023/05/16 07:31:55;;;;;;;7.63;1.20;;;;;;;13.39;87.04;101808.25;4951627;28;20039;-78
2023/05/16 07:34:20;;;;;;;9.85;1.40;;;;;;;12.58;90.76;101798.63;4936804;28;20034;-78
2023/05/16 07:36:46;;;;;;;10.00;1.60;;;;;;;13.37;88.81;101793.72;4935122;29;20110;-78
2023/05/16 07:39:11;;;;;;;10.38;1.20;;;;;;;13.96;85.19;101801.97;4974478;28;20027;-78
2023/05/16 07:41:37;;;;;;;6.15;0.80;;;;;;;14.01;83.68;101782.34;4932315;28;20081;-78
2023/05/16 07:44:02;;;;;;;12.63;1.40;;;;;;;14.74;80.54;101777.47;4933097;28;20100;-77
2023/05/16 07:46:28;;;;;;;18.70;1.38;;;;;;;13.39;84.98;101789.84;4963408;28;20050;-77
2023/05/16 07:48:54;;;;;;;13.50;2.22;;;;;;;13.22;85.69;101801.25;4946133;28;20382;-78
2023/05/16 07:51:19;;;;;;;7.45;1.95;;;;;;;13.16;84.92;101790.69;4926527;28;20085;-78
2023/05/16 07:53:45;;;;;;;11.20;1.50;;;;;;;13.10;87.97;101810.41;4947654;29;20066;-78
2023/05/16 07:56:11;;;;;;;9.63;0.90;;;;;;;13.28;88.73;101791.63;4948391;28;20126;-79
2023/05/16 07:58:37;;;;;;;9.00;1.08;;;;;;;13.26;86.82;101800.00;4936625;28;20455;-79
2023/05/16 08:01:03;;;;;;;9.63;1.02;;;;;;;13.58;86.63;101799.47;4942154;28;20096;-80
2023/05/16 08:03:29;;;;;;;8.13;1.17;;;;;;;13.54;86.41;101789.69;4929491;28;20100;-79
2023/05/16 08:05:54;;;;;;;9.85;1.05;;;;;;;13.21;88.03;101799.47;4963540;28;20026;-79
2023/05/16 08:08:20;;;;;;;14.57;1.48;;;;;;;12.65;91.23;101783.44;4961649;28;20474;-79
2023/05/16 08:10:46;;;;;;;12.60;1.98;;;;;;;12.27;91.62;101800.84;4947637;28;20034;-80
2023/05/16 08:13:11;;;;;;;10.48;1.15;;;;;;;12.42;92.98;101801.59;4938882;28;20038;-79
2023/05/16 08:15:36;;;;;;;10.57;1.52;;;;;;;12.49;91.54;101806.56;4935228;28;20041;-77
2023/05/16 08:18:02;;;;;;;6.60;1.00;;;;;;;12.51;88.33;101798.22;4951165;28;20117;-77
2023/05/16 08:20:28;;;;;;;5.53;1.55;;;;;;;13.33;85.02;101804.09;4943913;28;20109;-78
2023/05/16 08:22:54;;;;;;;9.75;1.02;;;;;;;14.68;77.14;101811.06;4932405;28;20460;-75
2023/05/16 08:25:19;;;;;;;4.30;0.63;;;;;;;13.87;79.22;101807.34;4957932;28;20042;-78
2023/05/16 08:27:47;;;;;;;5.00;0.90;;;;;;;12.99;81.30;101800.22;4961976;28;20062;-80
2023/05/16 08:30:13;;;;;;;11.52;1.10;;;;;;;12.61;82.98;101812.13;4958884;28;20093;-78
2023/05/16 08:32:39;;;;;;;8.98;0.77;;;;;;;12.44;84.92;101811.47;4954843;28;20486;-78
2023/05/16 08:35:05;;;;;;;8.35;1.10;;;;;;;13.91;82.06;101801.47;4950793;28;20041;-79
2023/05/16 08:37:31;;;;;;;8.48;1.20;;;;;;;14.78;76.99;101798.25;4942479;28;20515;-76
2023/05/16 08:39:57;;;;;;;2.50;0.65;;;;;;;16.07;73.54;101807.69;4955449;28;20134;-77
2023/05/16 08:42:22;;;;;;;2.85;0.80;;;;;;;15.93;64.41;101801.50;4936589;28;20058;-77
2023/05/16 08:44:48;;;;;;;7.03;1.42;;;;;;;15.11;69.85;101799.22;4945282;28;20042;-77
2023/05/16 08:47:23;;;;;;;4.97;0.80;;;;;;;15.44;66.21;101801.03;4966274;28;20097;-77
2023/05/16 08:49:51;;;;;;;5.18;0.63;;;;;;;16.20;65.05;101799.22;4967218;28;20401;-77
2023/05/16 08:52:20;;;;;;;8.93;0.75;;;;;;;16.08;63.49;101798.41;4961825;28;20022;-77
2023/05/16 08:54:46;;;;;;;5.03;0.68;;;;;;;16.85;59.65;101799.91;4986959;28;20061;-79
2023/05/16 08:57:13;;;;;;;3.13;0.70;;;;;;;17.45;58.06;101800.78;4988631;28;20486;-78
2023/05/16 08:59:40;;;;;;;9.88;0.90;;;;;;;16.80;59.58;101794.75;4962522;28;20042;-79
2023/05/16 09:02:07;;;;;;;13.73;1.08;;;;;;;16.40;61.83;101791.91;4962860;28;20023;-79
2023/05/16 09:04:32;;;;;;;6.60;1.05;;;;;;;16.85;63.53;101783.31;4928251;28;20090;-78
2023/05/16 09:06:58;;;;;;;9.07;0.80;;;;;;;16.76;61.63;101784.09;4963601;28;20054;-78
2023/05/16 09:09:23;;;;;;;3.50;0.90;;;;;;;17.06;57.09;101777.69;4958217;28;20057;-78
2023/05/16 09:11:49;;;;;;;6.13;0.88;;;;;;;15.70;61.94;101788.78;4970792;28;20030;-79
2023/05/16 09:14:15;;;;;;;6.95;0.93;;;;;;;14.44;64.96;101783.56;4910803;28;20027;-77
2023/05/16 09:16:40;;;;;;;9.27;0.80;;;;;;;15.03;63.34;101796.22;4928658;28;20046;-78
2023/05/16 09:19:05;;;;;;;5.40;0.73;;;;;;;14.21;64.79;101793.66;4963860;28;20038;-79
2023/05/16 09:21:33;;;;;;;5.80;0.80;;;;;;;14.64;63.54;101796.66;4962988;28;20046;-77
2023/05/16 09:24:05;;;;;;;7.72;0.70;;;;;;;15.24;64.05;101791.69;4957723;28;20122;-79
2023/05/16 09:26:32;;;;;;;6.18;1.17;;;;;;;15.99;62.70;101789.06;4960153;28;20046;-77
2023/05/16 09:28:58;;;;;;;3.72;1.00;;;;;;;15.54;63.00;101781.78;4984045;28;20031;-77
2023/05/16 09:31:25;;;;;;;11.63;1.70;;;;;;;16.38;63.19;101782.91;4957146;28;20425;-78
2023/05/16 09:33:52;;;;;;;4.15;0.60;;;;;;;15.32;62.88;101768.09;4969159;28;20711;-77
2023/05/16 09:36:18;;;;;;;7.03;0.90;;;;;;;14.88;66.45;101792.88;4966041;28;20486;-77
2023/05/16 09:38:44;;;;;;;9.40;1.00;;;;;;;14.32;69.83;101790.94;4966365;28;20089;-77
2023/05/16 09:41:10;;;;;;;5.97;1.23;;;;;;;13.71;74.67;101785.66;4977216;28;20031;-77
2023/05/16 09:43:41;;;;;;;10.60;0.95;;;;;;;15.14;74.28;101793.47;4938909;28;20038;-78
2023/05/16 09:46:07;;;;;;;10.05;0.77;;;;;;;14.68;71.14;101780.72;4975237;28;20031;-77
2023/05/16 09:48:33;;;;;;;7.18;1.00;;;;;;;15.02;69.26;101795.38;4980138;28;20093;-76
2023/05/16 09:51:03;;;;;;;7.88;1.45;;;;;;;15.99;67.51;101795.44;4980344;28;20394;-77
2023/05/16 09:53:32;;;;;;;7.10;1.23;;;;;;;16.12;68.55;101788.88;4950742;28;20122;-77
2023/05/16 09:56:10;;;;;;;4.60;0.85;;;;;;;17.12;67.21;101790.06;4986567;28;20031;-77
2023/05/16 09:58:43;;;;;;;8.27;0.88;;;;;;;16.58;63.06;101805.97;4964076;28;20121;-77
2023/05/16 10:01:09;;;;;;;4.85;0.80;;;;;;;15.35;67.42;101792.69;4958993;28;20466;-77
2023/05/16 10:03:38;;;;;;;11.23;1.00;;;;;;;15.23;66.82;101794.56;4978870;28;20045;-76
2023/05/16 10:06:05;;;;;;;10.45;1.02;;;;;;;14.88;67.66;101787.34;4972086;28;20614;-77
2023/05/16 10:08:36;;;;;;;5.07;0.85;;;;;;;14.74;69.58;101795.88;4971933;28;20035;-76
2023/05/16 10:11:03;;;;;;;4.30;0.82;;;;;;;14.65;68.64;101790.09;4959614;28;20097;-78
2023/05/16 10:13:32;;;;;;;5.45;1.13;;;;;;;15.30;68.86;101794.91;4981340;28;20101;-77
2023/05/16 10:16:00;;;;;;;3.63;0.80;;;;;;;15.37;67.59;101796.19;4942747;28;20035;-77
2023/05/16 10:18:31;;;;;;;3.42;0.80;;;;;;;14.73;70.49;101802.41;4974908;28;20058;-77
2023/05/16 10:21:03;;;;;;;7.53;1.10;;;;;;;14.97;69.91;101800.41;4981300;28;20058;-77
2023/05/16 10:23:31;;;;;;;14.07;1.40;;;;;;;15.14;72.15;101801.72;4970892;28;20039;-76
2023/05/16 10:26:02;;;;;;;8.98;0.90;;;;;;;15.51;68.45;101806.94;4932954;29;20027;-77
2023/05/16 10:28:28;;;;;;;8.40;1.23;;;;;;;15.18;69.89;101806.00;4931549;29;20055;-77
2023/05/16 10:30:54;;;;;;;4.97;0.75;;;;;;;15.69;69.21;101801.72;4952955;28;20034;-76
2023/05/16 10:33:20;;;;;;;8.45;0.80;;;;;;;15.37;68.85;101805.31;4940310;28;20121;-76
2023/05/16 10:35:46;;;;;;;7.90;0.90;;;;;;;15.79;68.32;101799.94;4940172;29;20114;-76
2023/05/16 10:38:15;;;;;;;9.43;0.80;;;;;;;16.15;66.13;101802.38;4938507;29;20035;-77
2023/05/16 10:40:41;;;;;;;4.05;0.65;;;;;;;16.11;64.77;101798.16;4953255;28;20038;-78
2023/05/16 10:43:08;;;;;;;6.90;0.85;;;;;;;16.76;65.98;101793.28;4940202;28;20030;-78
2023/05/16 10:45:38;;;;;;;6.07;0.70;;;;;;;17.67;59.32;101793.22;4951829;28;20044;-77
2023/05/16 10:48:08;;;;;;;4.15;0.52;;;;;;;17.45;56.39;101797.16;4980062;28;20026;-77
2023/05/16 10:50:44;;;;;;;4.93;0.60;;;;;;;16.92;51.33;101803.84;4974146;28;20039;-77
2023/05/16 10:53:27;;;;;;;3.53;0.60;;;;;;;17.89;50.79;101803.19;4966767;28;20109;-77
2023/05/16 10:55:56;;;;;;;2.25;0.50;;;;;;;17.82;50.83;101797.34;4966071;28;20066;-77
2023/05/16 10:58:33;;;;;;;6.82;0.80;;;;;;;17.44;54.44;101792.63;4959803;28;20049;-78
2023/05/16 11:01:19;;;;;;;5.22;0.43;;;;;;;17.74;53.03;101786.13;4954788;28;20030;-77
2023/05/16 11:03:58;;;;;;;6.85;0.55;;;;;;;17.54;55.14;101796.28;4974631;28;20058;-78
2023/05/16 11:06:32;;;;;;;4.63;0.80;;;;;;;16.59;55.92;101769.91;4940920;28;20389;-77
2023/05/16 11:09:09;;;;;;;7.95;0.80;;;;;;;15.96;56.83;101778.28;4965767;28;20030;-77
2023/05/16 11:11:50;;;;;;;5.20;0.70;;;;;;;15.55;59.79;101790.97;4953833;28;20066;-78
2023/05/16 11:14:24;;;;;;;4.30;1.05;;;;;;;15.15;59.35;101792.47;4967164;28;20034;-77
2023/05/16 11:17:02;;;;;;;6.35;0.77;;;;;;;14.94;58.98;101788.72;4976555;28;20090;-77
2023/05/16 11:19:57;;;;;;;7.45;0.85;;;;;;;14.53;61.71;101799.38;4976744;28;20058;-77